This is the latest recevied weather packets stored in our database for station/object KC7WRB. If no packets are shown the sender has not sent any weather packets the latest 10 day(s).
| Time | Temp. | Humidity | Pressure | Rain* | Wind** | Luminosity | Snow |
|---|---|---|---|---|---|---|---|
| 1777560473 | 7.22° C | 47% | 1020.1 hPa | 0 mm | - | 215 W/m² | - |
| 1777560170 | 6.11° C | 50% | 1019.9 hPa | 0 mm | - | 195 W/m² | - |
| 1777559867 | 5.56° C | 52% | 1020 hPa | 0 mm | - | 178 W/m² | - |
| 1777559562 | 5° C | 54% | 1020.1 hPa | 0 mm | - | 161 W/m² | - |
| 1777559260 | 5° C | 56% | 1020 hPa | 0 mm | - | 145 W/m² | - |
| 1777558955 | 6.11° C | 50% | 1020 hPa | 0 mm | - | 44 W/m² | - |
| 1777558652 | 6.11° C | 48% | 1020 hPa | 0 mm | - | 42 W/m² | - |
| 1777558347 | 5.56° C | 49% | 1019.8 hPa | 0 mm | - | 40 W/m² | - |
| 1777558044 | 5.56° C | 47% | 1019.8 hPa | 0 mm | - | 67 W/m² | - |
| 1777557740 | 5.56° C | 48% | 1019.7 hPa | 0 mm | - | 73 W/m² | - |
| 1777557437 | 5° C | 51% | 1019.8 hPa | 0 mm | - | 35 W/m² | - |
| 1777557134 | 5° C | 52% | 1019.7 hPa | 0 mm | - | 53 W/m² | - |
| 1777556829 | 4.44° C | 53% | 1019.8 hPa | 0 mm | - | 46 W/m² | - |
| 1777556526 | 3.89° C | 53% | 1019.7 hPa | 0 mm | - | 40 W/m² | - |
| 1777556225 | 2.78° C | 55% | 1019.7 hPa | 0 mm | - | 34 W/m² | - |
| 1777555921 | 1.67° C | 59% | 1019.5 hPa | 0 mm | - | 27 W/m² | - |
| 1777555617 | 1.11° C | 59% | 1019.2 hPa | 0 mm | - | 23 W/m² | - |
| 1777555314 | 0.56° C | 60% | 1019.5 hPa | 0 mm | - | 19 W/m² | - |
| 1777555010 | 0.56° C | 58% | 1019.5 hPa | 0 mm | - | 14 W/m² | - |
| 1777554708 | 0.56° C | 59% | 1019.3 hPa | 0 mm | - | 10 W/m² | - |
| 1777554404 | 0.56° C | 58% | 1019.2 hPa | 0 mm | - | 7 W/m² | - |
| 1777554101 | 1.11° C | 58% | 1019.4 hPa | 0 mm | - | 5 W/m² | - |
| 1777553798 | 1.11° C | 58% | 1019.2 hPa | 0 mm | - | 2 W/m² | - |
| 1777553495 | 1.67° C | 57% | 1019.2 hPa | 0 mm | - | 1 W/m² | - |
| 1777553195 | 1.67° C | 57% | 1019.4 hPa | 0 mm | - | 0 W/m² | - |
* Rain latest hour (hover to see other rain measurements)
** Current wind speed in m/s (hover to see current wind gust speed)